TAF and METAR

Decoding for American and Canadian METARs and TAFs is not fully implemented.

Could not understand the following METAR

CYCB 171100Z 31009KT 3SM BR FEW001 SCT180 BKN230 06/05 A2989 RMK SF2AC2CI3 VIS N-ENE 1 VIS E 6 SLP125

TAF for Cambridge Bay Airport

TAF AMD CYCB 170833Z 1708/1719 30008KT P6SM SCT002 TEMPO 1708/1715 2SM BR BKN002 OVC008 FM171500 29010KT P6SM SCT008 BKN030 TEMPO 1715/1719 P6SM -SHRA BKN008 OVC030 RMK NXT FCST BY 171300Z
Report created 17. aug 10:33

between 17. aug 10:00 - 17. aug 21:00

wind 8 knots from WNW (300°)